Time;durP1;ratioP1;P1;durP2;ratioP2;P2;SDS_P1;SDS_P2;PMS_P1;PMS_P2;Temp;Humidity;BMP_temperature;BMP_pressure;BME280_temperature;BME280_humidity;BME280_pressure;Samples;Min_cycle;Max_cycle;Signal;HPM_P1;HPM_P2
2023/07/28 00:00:06;;;;;;;5.90;3.57;;;22.40;75.70;;;;;;5053484;28;20228;-47
2023/07/28 00:02:32;;;;;;;3.57;3.23;;;22.30;76.00;;;;;;5053873;28;20197;-47
2023/07/28 00:04:58;;;;;;;3.30;3.00;;;22.20;76.60;;;;;;5053239;28;20430;-44
2023/07/28 00:07:23;;;;;;;3.90;3.60;;;22.20;76.90;;;;;;5053333;28;20247;-44
2023/07/28 00:09:49;;;;;;;3.47;3.20;;;22.40;75.90;;;;;;5053360;28;20573;-45
2023/07/28 00:12:14;;;;;;;4.40;3.47;;;22.40;74.80;;;;;;5053449;28;20242;-45
2023/07/28 00:14:40;;;;;;;3.90;3.60;;;22.40;74.80;;;;;;5053720;28;20239;-43
2023/07/28 00:17:05;;;;;;;7.03;3.47;;;22.40;74.60;;;;;;5052466;28;20197;-44
2023/07/28 00:19:31;;;;;;;3.33;3.10;;;22.40;74.30;;;;;;5053515;28;20231;-44
2023/07/28 00:21:56;;;;;;;3.70;3.40;;;22.30;74.10;;;;;;5051584;28;20184;-44
2023/07/28 00:24:22;;;;;;;3.47;3.17;;;22.30;74.40;;;;;;5053617;28;20195;-44
2023/07/28 00:26:48;;;;;;;3.70;3.40;;;22.30;74.00;;;;;;5052368;28;20272;-44
2023/07/28 00:29:13;;;;;;;4.60;3.27;;;22.40;73.70;;;;;;5053660;28;20668;-44
2023/07/28 00:31:39;;;;;;;3.43;3.13;;;22.20;74.10;;;;;;5052690;28;20203;-44
2023/07/28 00:34:04;;;;;;;3.77;3.47;;;22.10;74.90;;;;;;5053389;28;20197;-44
2023/07/28 00:36:30;;;;;;;3.80;3.50;;;22.00;75.90;;;;;;5050917;28;20640;-44
2023/07/28 00:38:57;;;;;;;4.20;3.90;;;22.00;76.60;;;;;;5053358;28;20246;-45
2023/07/28 00:41:22;;;;;;;3.80;3.50;;;22.10;76.10;;;;;;5052462;28;20470;-44
2023/07/28 00:43:48;;;;;;;4.00;3.70;;;22.20;75.50;;;;;;5053131;28;20938;-45
2023/07/28 00:46:15;;;;;;;3.97;3.60;;;22.30;74.40;;;;;;5052015;28;20192;-43
2023/07/28 00:48:41;;;;;;;4.40;3.43;;;22.10;74.50;;;;;;5051380;28;20200;-46
2023/07/28 00:51:07;;;;;;;4.60;3.50;;;22.10;74.20;;;;;;5052259;28;20427;-44
2023/07/28 00:53:33;;;;;;;3.33;3.03;;;22.10;73.90;;;;;;5053269;28;20189;-43
2023/07/28 00:56:00;;;;;;;3.43;3.13;;;22.00;73.80;;;;;;5051248;28;20435;-45
2023/07/28 00:58:26;;;;;;;4.27;3.43;;;22.10;72.80;;;;;;5052914;28;20999;-44
2023/07/28 01:00:52;;;;;;;3.60;3.30;;;22.30;71.90;;;;;;5052333;28;20483;-46
2023/07/28 01:03:20;;;;;;;3.03;2.80;;;22.20;71.30;;;;;;5052964;28;20666;-43
2023/07/28 01:06:11;;;;;;;3.40;3.10;;;22.20;71.20;;;;;;5051453;28;20667;-46
2023/07/28 01:08:57;;;;;;;4.50;3.50;;;22.20;70.80;;;;;;5052492;28;20447;-44
2023/07/28 01:11:22;;;;;;;4.20;2.80;;;22.30;70.50;;;;;;5051876;28;20514;-44
2023/07/28 01:13:48;;;;;;;3.70;3.00;;;22.40;70.40;;;;;;5052280;28;20547;-46
2023/07/28 01:16:14;;;;;;;3.60;3.30;;;22.40;69.90;;;;;;5049702;28;20192;-44
2023/07/28 01:18:40;;;;;;;6.57;2.73;;;22.30;69.40;;;;;;5052412;28;20549;-44
2023/07/28 01:21:09;;;;;;;4.20;2.90;;;22.30;69.60;;;;;;5051839;28;20479;-44
2023/07/28 01:23:51;;;;;;;4.13;3.73;;;22.30;69.50;;;;;;5051991;28;20268;-44
2023/07/28 01:26:25;;;;;;;3.57;3.07;;;22.20;69.30;;;;;;5051144;28;20454;-44
2023/07/28 01:28:52;;;;;;;3.50;3.20;;;22.20;69.50;;;;;;5052177;28;20430;-45
2023/07/28 01:31:18;;;;;;;5.83;3.40;;;22.20;69.30;;;;;;5051510;28;20435;-46
2023/07/28 01:33:43;;;;;;;3.73;2.90;;;22.20;68.90;;;;;;5051923;28;20423;-45
2023/07/28 01:36:09;;;;;;;2.83;2.63;;;22.20;69.00;;;;;;5050993;28;20193;-44
2023/07/28 01:38:35;;;;;;;4.63;3.50;;;22.30;68.70;;;;;;5051742;28;20196;-44
2023/07/28 01:41:00;;;;;;;2.93;2.73;;;22.30;68.30;;;;;;5051390;28;20277;-45
2023/07/28 01:43:26;;;;;;;6.40;2.90;;;22.20;68.00;;;;;;5050334;28;20561;-48
2023/07/28 01:45:51;;;;;;;3.53;3.23;;;22.20;67.90;;;;;;5051026;28;20631;-44
2023/07/28 01:48:17;;;;;;;3.10;2.90;;;22.30;67.80;;;;;;5051437;28;20385;-44
2023/07/28 01:50:42;;;;;;;5.17;3.20;;;22.30;67.50;;;;;;5050927;28;20193;-44
2023/07/28 01:53:08;;;;;;;5.80;3.50;;;22.30;67.40;;;;;;5051478;28;20197;-44
2023/07/28 01:55:34;;;;;;;4.10;2.73;;;22.30;67.20;;;;;;5050842;28;20231;-45
2023/07/28 01:58:01;;;;;;;3.10;2.90;;;22.30;67.00;;;;;;5051801;28;20419;-45
2023/07/28 02:00:27;;;;;;;2.83;2.63;;;22.30;67.10;;;;;;5050844;28;20707;-46
2023/07/28 02:02:54;;;;;;;2.70;2.50;;;22.30;67.10;;;;;;5051936;28;20427;-46
2023/07/28 02:05:20;;;;;;;3.17;2.80;;;22.30;67.20;;;;;;5050680;28;20431;-48
2023/07/28 02:07:46;;;;;;;3.90;3.17;;;22.30;67.20;;;;;;5051366;28;20423;-49
2023/07/28 02:10:11;;;;;;;3.43;3.13;;;22.30;67.00;;;;;;5049213;28;20791;-48
2023/07/28 02:12:38;;;;;;;3.73;2.93;;;22.30;67.20;;;;;;5051054;28;20197;-49
2023/07/28 02:15:05;;;;;;;2.87;2.57;;;22.30;67.00;;;;;;5050557;28;20626;-49
2023/07/28 02:17:31;;;;;;;4.10;2.73;;;22.30;67.20;;;;;;5051312;28;20423;-48
2023/07/28 02:19:56;;;;;;;3.20;2.90;;;22.20;67.90;;;;;;5050784;28;20560;-46
2023/07/28 02:22:22;;;;;;;6.57;3.43;;;22.20;68.00;;;;;;5051538;28;20188;-46
2023/07/28 02:24:47;;;;;;;2.77;2.57;;;22.30;67.70;;;;;;5051069;28;20196;-49
2023/07/28 02:27:13;;;;;;;6.30;3.10;;;22.30;67.40;;;;;;5050550;28;20202;-48
2023/07/28 02:29:38;;;;;;;6.23;2.50;;;22.30;67.50;;;;;;5051029;28;20193;-48
2023/07/28 02:32:04;;;;;;;3.03;2.83;;;22.30;67.50;;;;;;5050340;28;20616;-49
2023/07/28 02:34:30;;;;;;;3.30;3.10;;;22.30;67.40;;;;;;5051092;28;20609;-49
2023/07/28 02:36:55;;;;;;;3.23;2.93;;;22.30;67.20;;;;;;5049084;28;20420;-47
2023/07/28 02:39:21;;;;;;;3.10;2.80;;;22.30;67.10;;;;;;5051006;28;20208;-48
2023/07/28 02:41:47;;;;;;;3.53;3.10;;;22.30;67.20;;;;;;5050186;28;20243;-48
2023/07/28 02:44:12;;;;;;;3.30;2.90;;;22.30;67.20;;;;;;5051402;28;20216;-46
2023/07/28 02:46:38;;;;;;;4.27;3.00;;;22.30;67.20;;;;;;5050335;28;20664;-49
2023/07/28 02:49:03;;;;;;;3.10;2.90;;;22.20;67.20;;;;;;5050875;28;20280;-44
2023/07/28 02:51:30;;;;;;;3.20;3.00;;;22.30;67.30;;;;;;5050336;28;20188;-48
2023/07/28 02:53:55;;;;;;;3.20;2.93;;;22.20;67.20;;;;;;5051069;28;20219;-48
2023/07/28 02:56:21;;;;;;;3.00;2.80;;;22.20;67.40;;;;;;5049786;28;20419;-49
2023/07/28 02:58:48;;;;;;;3.20;2.90;;;22.20;67.70;;;;;;5051013;28;20751;-47
2023/07/28 03:01:14;;;;;;;4.13;3.00;;;22.20;67.80;;;;;;5054153;28;20474;-47
2023/07/28 03:03:39;;;;;;;5.43;3.43;;;22.20;68.10;;;;;;5053515;28;20434;-47
2023/07/28 03:06:05;;;;;;;3.63;3.20;;;22.20;68.40;;;;;;5053910;28;20229;-47
2023/07/28 03:08:31;;;;;;;3.80;3.50;;;22.20;68.50;;;;;;5054965;28;20200;-45
2023/07/28 03:11:02;;;;;;;3.90;3.60;;;22.20;68.50;;;;;;5054301;28;20639;-48
2023/07/28 03:13:28;;;;;;;3.90;3.27;;;22.30;68.60;;;;;;5054700;28;20675;-46
2023/07/28 03:15:53;;;;;;;4.20;3.80;;;22.30;68.50;;;;;;5053633;28;20471;-48
2023/07/28 03:18:19;;;;;;;4.20;3.77;;;22.30;68.40;;;;;;5054414;28;20266;-49
2023/07/28 03:20:46;;;;;;;3.50;3.20;;;22.30;68.60;;;;;;5053890;28;20346;-44
2023/07/28 03:23:11;;;;;;;5.03;3.60;;;22.30;68.80;;;;;;5054631;28;20248;-44
2023/07/28 03:25:37;;;;;;;3.53;3.23;;;22.30;68.90;;;;;;5053678;28;20923;-44
2023/07/28 03:28:02;;;;;;;4.07;3.27;;;22.00;70.40;;;;;;5054511;28;20184;-46
2023/07/28 03:30:28;;;;;;;4.07;3.50;;;22.00;70.40;;;;;;5052344;28;20375;-44
2023/07/28 03:32:54;;;;;;;9.20;3.20;;;22.10;70.30;;;;;;5054517;28;20268;-43
2023/07/28 03:35:19;;;;;;;10.47;4.10;;;22.10;70.10;;;;;;5053688;28;20294;-44
2023/07/28 03:37:45;;;;;;;4.37;3.73;;;22.20;70.10;;;;;;5054141;28;20199;-44
2023/07/28 03:40:10;;;;;;;4.30;3.90;;;22.20;70.10;;;;;;5053729;28;20229;-44
2023/07/28 03:42:36;;;;;;;7.43;4.30;;;22.20;70.20;;;;;;5054284;28;20271;-44
2023/07/28 03:45:02;;;;;;;4.30;3.93;;;22.20;70.50;;;;;;5053535;28;20200;-44
2023/07/28 03:47:27;;;;;;;4.20;3.90;;;22.20;70.60;;;;;;5054066;28;20770;-44
2023/07/28 03:49:53;;;;;;;4.40;4.00;;;22.20;70.60;;;;;;5053382;28;20227;-44
2023/07/28 03:52:19;;;;;;;5.97;4.20;;;22.20;70.40;;;;;;5053991;28;20648;-44
2023/07/28 03:54:44;;;;;;;7.37;4.63;;;22.30;70.50;;;;;;5053700;28;20250;-44
2023/07/28 03:57:10;;;;;;;4.40;4.00;;;22.30;70.40;;;;;;5052234;28;20208;-44
2023/07/28 03:59:35;;;;;;;9.73;4.70;;;22.30;70.40;;;;;;5053600;28;20228;-47
2023/07/28 04:02:01;;;;;;;5.77;4.60;;;22.30;70.20;;;;;;5053434;28;20231;-44
2023/07/28 04:04:27;;;;;;;6.67;4.20;;;22.30;70.00;;;;;;5053992;28;20192;-45
2023/07/28 04:06:53;;;;;;;5.27;4.40;;;22.30;70.00;;;;;;5052975;28;20197;-44
2023/07/28 04:09:19;;;;;;;3.47;3.27;;;22.30;70.00;;;;;;5033740;28;20478;-44
2023/07/28 04:11:45;;;;;;;5.47;4.10;;;22.30;70.00;;;;;;5034558;28;20557;-45
2023/07/28 04:14:12;;;;;;;4.10;3.70;;;22.30;70.00;;;;;;5039975;28;20550;-46
2023/07/28 04:16:38;;;;;;;4.60;4.07;;;22.30;69.90;;;;;;5052471;28;20423;-44
2023/07/28 04:19:03;;;;;;;4.73;4.23;;;22.20;69.80;;;;;;5053180;28;20435;-44
2023/07/28 04:21:29;;;;;;;3.80;3.50;;;22.30;70.00;;;;;;5052797;28;20849;-44
2023/07/28 04:23:55;;;;;;;4.37;3.97;;;22.20;69.80;;;;;;5052291;28;20275;-45
2023/07/28 04:26:22;;;;;;;4.30;3.90;;;22.20;69.90;;;;;;5052122;28;20272;-44
2023/07/28 04:28:47;;;;;;;4.13;3.83;;;22.30;70.10;;;;;;5053419;28;20200;-45
2023/07/28 04:31:13;;;;;;;6.50;4.30;;;22.20;70.20;;;;;;5052873;28;20411;-46
2023/07/28 04:33:41;;;;;;;4.60;4.20;;;22.20;70.30;;;;;;5053140;28;20234;-44
2023/07/28 04:36:07;;;;;;;4.93;4.53;;;22.10;70.60;;;;;;5052211;28;20562;-46
2023/07/28 04:38:33;;;;;;;4.00;3.63;;;22.00;71.50;;;;;;5053217;28;20427;-46
2023/07/28 04:40:58;;;;;;;6.07;4.07;;;21.90;71.90;;;;;;5052480;28;20232;-44
2023/07/28 04:43:24;;;;;;;4.83;3.80;;;22.00;72.00;;;;;;5053146;28;20196;-45
2023/07/28 04:45:49;;;;;;;4.30;3.90;;;22.00;71.60;;;;;;5051683;28;20241;-50
2023/07/28 04:48:15;;;;;;;5.10;4.13;;;22.10;71.30;;;;;;5052965;28;20193;-45
2023/07/28 04:50:40;;;;;;;4.93;4.23;;;22.10;71.30;;;;;;5050498;28;20189;-44
2023/07/28 04:53:06;;;;;;;4.47;4.00;;;22.20;71.20;;;;;;5052767;28;20189;-45
2023/07/28 04:55:32;;;;;;;7.00;4.57;;;22.20;71.20;;;;;;5051907;28;20730;-45
2023/07/28 04:57:57;;;;;;;7.30;4.30;;;22.20;71.30;;;;;;5032644;28;20197;-48
2023/07/28 05:00:23;;;;;;;6.07;4.50;;;22.20;71.30;;;;;;5032435;28;20624;-46
2023/07/28 05:02:49;;;;;;;6.43;4.80;;;22.20;71.20;;;;;;5032847;28;20271;-44
2023/07/28 05:05:15;;;;;;;4.07;3.67;;;22.30;71.40;;;;;;5031406;28;20193;-43
2023/07/28 05:07:40;;;;;;;5.20;4.20;;;22.20;71.80;;;;;;5032839;28;20185;-46
2023/07/28 05:10:06;;;;;;;4.60;3.70;;;22.10;72.50;;;;;;5032023;28;20276;-46
2023/07/28 05:12:32;;;;;;;5.83;4.50;;;22.10;72.80;;;;;;5040483;28;20265;-45
2023/07/28 05:14:57;;;;;;;5.90;4.57;;;22.10;73.00;;;;;;5051129;28;20467;-44
2023/07/28 05:17:23;;;;;;;4.53;3.93;;;22.00;73.10;;;;;;5050834;28;20207;-45
2023/07/28 05:19:50;;;;;;;4.50;4.10;;;22.10;73.30;;;;;;5051941;28;20239;-44
2023/07/28 05:22:16;;;;;;;4.43;3.80;;;22.10;73.40;;;;;;5051566;28;20623;-44
2023/07/28 05:24:42;;;;;;;5.60;4.00;;;22.10;73.60;;;;;;5051898;28;20458;-44
2023/07/28 05:27:08;;;;;;;5.60;3.93;;;22.00;73.90;;;;;;5051372;28;20207;-45
2023/07/28 05:29:33;;;;;;;4.27;3.90;;;22.10;74.00;;;;;;5052225;28;20617;-44
2023/07/28 05:32:01;;;;;;;4.90;4.40;;;22.10;74.00;;;;;;5051527;28;20643;-44
2023/07/28 05:34:27;;;;;;;6.47;4.27;;;22.20;73.90;;;;;;5052051;28;20276;-44
2023/07/28 05:36:53;;;;;;;4.80;4.17;;;22.20;74.00;;;;;;5050998;28;20873;-43
2023/07/28 05:39:18;;;;;;;8.37;4.47;;;22.30;74.10;;;;;;5051882;28;20193;-45
2023/07/28 05:41:44;;;;;;;5.50;4.93;;;22.30;74.30;;;;;;5051494;28;20196;-43
2023/07/28 05:44:09;;;;;;;5.10;3.80;;;22.30;74.40;;;;;;5050414;28;20195;-45
2023/07/28 05:46:35;;;;;;;5.40;4.90;;;22.30;74.40;;;;;;5051047;28;20203;-44
2023/07/28 05:49:01;;;;;;;5.43;4.93;;;22.30;74.10;;;;;;5051637;28;20197;-44
2023/07/28 05:51:26;;;;;;;7.07;4.40;;;22.40;74.10;;;;;;5051445;28;20650;-44
2023/07/28 05:53:52;;;;;;;6.00;4.23;;;22.40;74.20;;;;;;5051731;28;20189;-44
2023/07/28 05:56:20;;;;;;;4.97;4.57;;;22.40;74.00;;;;;;5050747;28;20631;-45
2023/07/28 05:58:46;;;;;;;4.77;4.37;;;22.50;74.00;;;;;;5051676;28;20640;-44
2023/07/28 06:01:12;;;;;;;5.33;4.60;;;22.50;74.00;;;;;;5051040;28;20479;-44
2023/07/28 06:03:38;;;;;;;6.87;4.60;;;22.50;73.90;;;;;;5051326;28;20485;-48
2023/07/28 06:06:03;;;;;;;4.50;4.20;;;22.50;74.00;;;;;;5050494;28;20636;-44
2023/07/28 06:08:29;;;;;;;8.40;4.77;;;22.60;74.40;;;;;;5051520;28;20203;-44
2023/07/28 06:10:54;;;;;;;4.70;4.27;;;22.60;74.40;;;;;;5049219;28;20195;-44
2023/07/28 06:13:20;;;;;;;5.60;5.10;;;22.60;74.40;;;;;;5051202;28;20330;-44
2023/07/28 06:15:47;;;;;;;5.60;4.40;;;22.60;74.50;;;;;;5050306;28;20609;-44
2023/07/28 06:18:13;;;;;;;4.90;4.47;;;22.60;74.90;;;;;;5051573;28;20568;-44
2023/07/28 06:20:42;;;;;;;5.30;4.60;;;22.60;75.00;;;;;;5050390;28;20483;-45
2023/07/28 06:23:08;;;;;;;5.27;4.33;;;22.60;75.90;;;;;;5051518;28;20189;-45
2023/07/28 06:25:33;;;;;;;4.60;4.20;;;22.60;75.20;;;;;;5050189;28;20438;-44
2023/07/28 06:27:59;;;;;;;4.83;4.43;;;22.60;75.30;;;;;;5051721;28;20542;-44
2023/07/28 06:30:25;;;;;;;5.40;4.50;;;22.60;75.20;;;;;;5050555;28;20607;-44
2023/07/28 06:32:51;;;;;;;4.83;4.43;;;22.60;75.40;;;;;;5051144;28;20192;-44
2023/07/28 06:35:17;;;;;;;8.50;5.20;;;22.60;75.40;;;;;;5050162;28;20845;-44
2023/07/28 06:37:42;;;;;;;5.30;4.80;;;22.70;75.30;;;;;;5049525;28;20278;-44
2023/07/28 06:40:09;;;;;;;5.37;4.87;;;22.70;75.10;;;;;;5050377;28;20750;-45
2023/07/28 06:42:35;;;;;;;6.30;5.07;;;22.70;75.20;;;;;;5051252;28;20208;-46
2023/07/28 06:45:02;;;;;;;4.60;4.20;;;22.60;75.30;;;;;;5050061;28;20442;-45
2023/07/28 06:47:28;;;;;;;5.80;4.80;;;22.70;75.50;;;;;;5051271;28;20441;-45
2023/07/28 06:49:53;;;;;;;5.77;5.27;;;22.70;75.40;;;;;;5050220;28;20431;-44
2023/07/28 06:52:19;;;;;;;4.27;3.97;;;22.80;75.40;;;;;;5051178;28;20189;-45
2023/07/28 06:54:44;;;;;;;5.00;4.50;;;22.70;75.30;;;;;;5050641;28;20643;-44
2023/07/28 06:57:10;;;;;;;5.13;4.67;;;22.80;75.40;;;;;;5050203;28;20196;-44
2023/07/28 06:59:35;;;;;;;4.73;4.33;;;22.80;75.30;;;;;;5050860;28;20220;-45
2023/07/28 07:02:01;;;;;;;4.67;4.27;;;22.80;75.30;;;;;;5050429;28;20189;-44
2023/07/28 07:04:27;;;;;;;5.70;4.63;;;22.70;75.80;;;;;;5049712;28;20534;-44
2023/07/28 07:06:52;;;;;;;4.87;4.47;;;22.60;76.90;;;;;;5049683;28;20276;-44
2023/07/28 07:09:18;;;;;;;5.20;4.60;;;22.70;77.00;;;;;;5050725;28;20200;-45
2023/07/28 07:11:43;;;;;;;5.07;4.57;;;22.70;76.80;;;;;;5050159;28;20532;-44
2023/07/28 07:14:09;;;;;;;8.27;5.00;;;22.80;76.70;;;;;;5050558;28;20239;-46
2023/07/28 07:16:34;;;;;;;4.20;3.90;;;22.80;76.70;;;;;;5050136;28;20281;-44
2023/07/28 07:19:00;;;;;;;4.90;4.50;;;22.90;77.00;;;;;;5050569;28;20197;-46
2023/07/28 07:21:27;;;;;;;4.20;3.80;;;22.90;76.80;;;;;;5050098;28;20239;-47
2023/07/28 07:23:53;;;;;;;4.67;4.27;;;22.90;76.50;;;;;;5050883;28;20298;-45
2023/07/28 07:26:19;;;;;;;4.97;4.57;;;22.90;76.40;;;;;;5049839;28;20423;-46
2023/07/28 07:28:44;;;;;;;8.50;4.30;;;22.90;76.40;;;;;;5050511;28;20197;-44
2023/07/28 07:31:14;;;;;;;4.63;4.23;;;22.90;76.30;;;;;;5050034;28;20196;-49
2023/07/28 07:33:40;;;;;;;4.73;4.33;;;22.90;76.20;;;;;;5049568;28;20277;-46
2023/07/28 07:36:05;;;;;;;5.27;4.60;;;23.00;75.90;;;;;;5049825;28;20423;-45
2023/07/28 07:38:31;;;;;;;5.37;4.37;;;23.00;75.80;;;;;;5050505;28;20822;-46
2023/07/28 07:40:57;;;;;;;5.90;4.53;;;23.10;75.70;;;;;;5050491;28;20224;-44
2023/07/28 07:43:22;;;;;;;4.77;4.33;;;23.00;75.50;;;;;;5050777;28;20193;-44
2023/07/28 07:45:50;;;;;;;4.90;4.40;;;23.00;75.70;;;;;;5051076;28;20196;-45
2023/07/28 07:48:15;;;;;;;4.67;4.27;;;22.90;75.70;;;;;;5053913;28;20196;-44
2023/07/28 07:50:41;;;;;;;6.37;4.30;;;22.90;76.40;;;;;;5053449;28;20422;-44
2023/07/28 07:53:06;;;;;;;6.70;3.90;;;23.00;76.50;;;;;;5054101;28;20220;-45
2023/07/28 07:55:32;;;;;;;5.00;4.60;;;23.10;76.60;;;;;;5053211;28;20195;-45
2023/07/28 07:57:58;;;;;;;4.73;4.20;;;23.20;76.60;;;;;;5053833;28;20303;-45
2023/07/28 08:00:23;;;;;;;4.73;4.23;;;23.30;76.50;;;;;;5052094;28;20235;-44
2023/07/28 08:02:49;;;;;;;4.27;3.87;;;23.40;76.80;;;;;;5054259;28;20193;-44
2023/07/28 08:05:15;;;;;;;4.87;4.47;;;23.50;76.40;;;;;;5053012;28;20231;-45
2023/07/28 08:07:41;;;;;;;5.70;4.33;;;23.60;75.80;;;;;;5053736;28;20279;-45
2023/07/28 08:10:07;;;;;;;4.93;4.50;;;23.70;75.40;;;;;;5053332;28;20196;-44
2023/07/28 08:12:33;;;;;;;6.37;5.10;;;23.70;75.10;;;;;;5053796;28;20957;-45
2023/07/28 08:14:58;;;;;;;5.10;4.60;;;23.80;75.00;;;;;;5052651;28;20236;-44
2023/07/28 08:17:24;;;;;;;12.30;4.57;;;23.80;74.70;;;;;;5053890;28;20251;-44
2023/07/28 08:19:50;;;;;;;8.30;5.20;;;23.90;74.50;;;;;;5052804;28;20231;-44
2023/07/28 08:22:15;;;;;;;7.00;4.60;;;23.90;74.70;;;;;;5053319;28;20203;-45
2023/07/28 08:24:41;;;;;;;4.50;4.10;;;24.00;75.10;;;;;;5053031;28;20663;-44
2023/07/28 08:27:06;;;;;;;4.73;4.33;;;24.00;74.90;;;;;;5051562;28;20271;-45
2023/07/28 08:29:32;;;;;;;5.97;5.47;;;24.00;74.60;;;;;;5053453;28;20189;-46
2023/07/28 08:31:57;;;;;;;7.80;4.00;;;24.10;74.30;;;;;;5052715;28;20188;-46
2023/07/28 08:34:23;;;;;;;4.93;4.53;;;24.10;73.90;;;;;;5053374;28;20188;-46
2023/07/28 08:36:49;;;;;;;5.40;4.90;;;24.10;73.70;;;;;;5052847;28;20185;-43
2023/07/28 08:39:15;;;;;;;4.70;4.30;;;24.10;74.30;;;;;;5053361;28;20184;-44
2023/07/28 08:41:41;;;;;;;6.27;4.80;;;24.20;74.40;;;;;;5052573;28;20231;-44
2023/07/28 08:44:07;;;;;;;4.93;4.00;;;24.20;74.20;;;;;;5053310;28;20188;-46
2023/07/28 08:46:34;;;;;;;5.10;4.60;;;24.20;74.00;;;;;;5052152;28;20438;-44
2023/07/28 08:49:00;;;;;;;5.17;4.67;;;24.20;74.00;;;;;;5052766;28;20451;-45
2023/07/28 08:51:26;;;;;;;5.00;4.40;;;24.20;74.00;;;;;;5052333;28;20427;-45
2023/07/28 08:53:52;;;;;;;5.57;5.07;;;24.20;73.80;;;;;;5051710;28;20431;-44
2023/07/28 08:56:18;;;;;;;4.87;4.47;;;24.30;73.40;;;;;;5051678;28;20196;-44
2023/07/28 08:58:44;;;;;;;5.03;4.53;;;24.20;73.50;;;;;;5051758;28;20216;-44
2023/07/28 09:01:11;;;;;;;5.47;5.00;;;24.30;73.50;;;;;;5052241;28;20479;-48
2023/07/28 09:03:41;;;;;;;5.20;4.57;;;24.30;73.00;;;;;;5053195;28;20189;-44
2023/07/28 09:06:09;;;;;;;5.60;5.10;;;24.40;72.70;;;;;;5051828;28;20427;-47
2023/07/28 09:08:36;;;;;;;5.77;5.17;;;24.40;72.00;;;;;;5052754;28;20514;-45
2023/07/28 09:11:04;;;;;;;6.07;5.20;;;24.40;71.80;;;;;;5052052;28;20428;-44
2023/07/28 09:13:37;;;;;;;10.40;5.10;;;24.50;71.60;;;;;;5052506;28;20449;-45
2023/07/28 09:16:03;;;;;;;4.53;4.13;;;24.50;71.80;;;;;;5051452;28;20989;-44
2023/07/28 09:18:29;;;;;;;4.97;4.63;;;24.50;71.00;;;;;;5052443;28;20912;-44
2023/07/28 09:20:55;;;;;;;9.03;5.10;;;24.50;71.50;;;;;;5050512;28;21023;-44
2023/07/28 09:23:29;;;;;;;6.33;4.60;;;24.50;72.30;;;;;;5052379;28;20443;-44
2023/07/28 09:26:02;;;;;;;5.53;5.03;;;24.60;72.70;;;;;;5051609;28;20193;-44
2023/07/28 09:28:41;;;;;;;5.00;4.17;;;24.70;72.80;;;;;;5052337;28;20518;-45
2023/07/28 09:31:07;;;;;;;9.43;4.60;;;24.70;72.10;;;;;;5051683;28;20894;-48
2023/07/28 09:33:35;;;;;;;6.63;5.30;;;24.80;72.20;;;;;;5052145;28;20819;-47
2023/07/28 09:36:09;;;;;;;7.03;5.30;;;24.80;71.50;;;;;;5051128;28;20443;-50
2023/07/28 09:38:38;;;;;;;5.47;4.97;;;25.00;71.50;;;;;;5052001;28;20430;-48
2023/07/28 09:41:07;;;;;;;5.77;5.27;;;25.10;71.00;;;;;;5051289;28;20479;-48
2023/07/28 09:43:33;;;;;;;6.27;5.13;;;25.20;70.50;;;;;;5051984;28;20443;-47
2023/07/28 09:46:00;;;;;;;5.73;5.23;;;25.20;70.20;;;;;;5049987;28;20453;-48
2023/07/28 09:48:31;;;;;;;6.70;6.10;;;25.30;71.60;;;;;;5051364;28;20739;-48
2023/07/28 09:50:59;;;;;;;5.60;5.10;;;25.50;70.60;;;;;;5051328;28;20427;-49
2023/07/28 09:53:27;;;;;;;6.13;5.23;;;25.60;70.60;;;;;;5052181;28;20442;-49
2023/07/28 09:55:53;;;;;;;4.90;4.37;;;25.80;70.00;;;;;;5050991;28;20439;-50
2023/07/28 09:58:21;;;;;;;7.77;5.07;;;25.80;68.90;;;;;;5052065;28;20497;-50
2023/07/28 10:00:48;;;;;;;5.83;5.20;;;25.90;69.00;;;;;;5051273;28;20489;-49
2023/07/28 10:03:14;;;;;;;8.30;4.77;;;26.10;68.30;;;;;;5052045;28;20770;-50
2023/07/28 10:05:40;;;;;;;8.80;4.30;;;26.20;67.30;;;;;;5050659;28;20427;-48
2023/07/28 10:08:06;;;;;;;4.90;3.87;;;26.30;66.50;;;;;;5051261;28;20484;-50
2023/07/28 10:10:32;;;;;;;4.20;3.90;;;26.40;63.30;;;;;;5051000;28;20481;-49
2023/07/28 10:12:59;;;;;;;6.47;4.30;;;26.50;62.50;;;;;;5050651;28;20914;-46
2023/07/28 10:15:31;;;;;;;4.03;3.60;;;26.60;62.20;;;;;;5050070;28;20477;-49
2023/07/28 10:17:59;;;;;;;4.00;3.70;;;26.60;62.70;;;;;;5051620;28;20437;-46
2023/07/28 10:20:28;;;;;;;3.90;3.60;;;26.50;62.40;;;;;;5050592;28;20525;-46
2023/07/28 10:23:01;;;;;;;3.93;3.63;;;26.60;62.10;;;;;;5051546;28;20439;-49
2023/07/28 10:25:27;;;;;;;6.27;3.90;;;26.60;62.50;;;;;;5050415;28;20856;-47
2023/07/28 10:27:54;;;;;;;5.63;3.70;;;26.70;62.40;;;;;;5051448;28;20420;-44
2023/07/28 10:30:20;;;;;;;3.57;3.27;;;26.50;60.60;;;;;;5050506;28;20702;-44
2023/07/28 10:32:50;;;;;;;4.27;3.87;;;26.60;61.10;;;;;;5051277;28;20427;-47
2023/07/28 10:35:21;;;;;;;3.43;3.13;;;26.60;61.40;;;;;;5050382;28;20567;-47
2023/07/28 10:37:47;;;;;;;3.73;3.43;;;26.70;61.50;;;;;;5051225;28;20482;-44
2023/07/28 10:40:35;;;;;;;4.27;2.87;;;26.70;61.00;;;;;;5048565;28;20490;-45
2023/07/28 10:43:04;;;;;;;3.50;3.13;;;26.70;61.80;;;;;;5051328;28;20435;-46
2023/07/28 10:45:32;;;;;;;3.70;3.17;;;26.70;60.70;;;;;;5050211;28;20927;-46
2023/07/28 10:48:03;;;;;;;4.20;3.23;;;26.70;61.60;;;;;;5050821;28;20428;-45
2023/07/28 10:50:30;;;;;;;3.63;3.33;;;26.70;61.60;;;;;;5050459;28;20422;-49
2023/07/28 10:52:56;;;;;;;3.60;3.30;;;26.60;60.80;;;;;;5051293;28;20430;-48
2023/07/28 10:55:27;;;;;;;2.87;2.67;;;26.60;60.70;;;;;;5050215;28;20480;-48
2023/07/28 10:57:53;;;;;;;4.17;3.03;;;26.70;61.00;;;;;;5051182;28;20431;-44
2023/07/28 11:00:21;;;;;;;4.00;3.70;;;26.70;61.20;;;;;;5050158;28;20506;-46
2023/07/28 11:02:55;;;;;;;6.27;3.57;;;26.80;61.10;;;;;;5050944;28;20444;-48
2023/07/28 11:05:25;;;;;;;3.70;3.40;;;26.80;61.50;;;;;;5049976;28;20465;-49
2023/07/28 11:07:55;;;;;;;3.10;2.90;;;26.80;61.20;;;;;;5049506;28;20534;-45
2023/07/28 11:10:21;;;;;;;7.50;3.17;;;26.80;60.90;;;;;;5050320;28;20427;-47
2023/07/28 11:12:51;;;;;;;3.13;2.83;;;26.90;61.30;;;;;;5050925;28;20422;-46
2023/07/28 11:15:17;;;;;;;3.23;3.00;;;27.00;61.50;;;;;;5049650;28;20290;-45
2023/07/28 11:17:47;;;;;;;2.90;2.70;;;27.00;61.50;;;;;;5050871;28;20504;-45
2023/07/28 11:20:17;;;;;;;3.90;2.70;;;27.10;61.10;;;;;;5050172;28;20490;-47
2023/07/28 11:22:51;;;;;;;5.13;2.37;;;27.00;59.60;;;;;;5054834;28;20526;-44
2023/07/28 11:25:17;;;;;;;3.20;2.70;;;26.90;59.60;;;;;;5053641;28;20993;-48
2023/07/28 11:27:46;;;;;;;2.93;2.53;;;26.90;59.60;;;;;;5054667;28;20427;-46
2023/07/28 11:30:12;;;;;;;2.90;2.70;;;26.90;59.50;;;;;;5054017;28;20454;-47
2023/07/28 11:32:38;;;;;;;14.07;2.77;;;27.00;59.20;;;;;;5054594;28;20451;-45
2023/07/28 11:35:05;;;;;;;2.60;2.40;;;27.00;59.30;;;;;;5052087;28;20434;-47
2023/07/28 11:37:33;;;;;;;4.00;2.73;;;27.10;59.00;;;;;;5054564;28;20427;-45
2023/07/28 11:39:59;;;;;;;2.60;2.40;;;27.20;59.30;;;;;;5053871;28;20486;-51
2023/07/28 11:42:27;;;;;;;2.60;2.40;;;27.30;59.50;;;;;;5054421;28;20917;-44
2023/07/28 11:44:53;;;;;;;2.43;2.23;;;27.50;59.30;;;;;;5053385;28;20430;-46
2023/07/28 11:47:18;;;;;;;2.60;2.40;;;27.70;58.40;;;;;;5054140;28;20423;-45
2023/07/28 11:49:48;;;;;;;2.70;2.50;;;27.90;58.10;;;;;;5053950;28;20192;-44
2023/07/28 11:52:15;;;;;;;2.80;2.60;;;27.90;57.60;;;;;;5053903;28;20203;-45
2023/07/28 11:54:41;;;;;;;2.73;2.20;;;28.10;57.60;;;;;;5053559;28;20938;-46
2023/07/28 11:57:08;;;;;;;3.40;2.60;;;28.10;56.50;;;;;;5053620;28;20462;-44
2023/07/28 11:59:35;;;;;;;3.30;3.00;;;28.30;56.90;;;;;;5053891;28;20799;-45
2023/07/28 12:02:05;;;;;;;3.13;2.40;;;28.50;57.40;;;;;;5052025;28;20445;-45
2023/07/28 12:04:42;;;;;;;3.17;2.87;;;28.50;55.30;;;;;;5053645;28;20431;-46
2023/07/28 12:07:12;;;;;;;2.53;2.33;;;28.70;55.70;;;;;;5053080;28;20906;-46
2023/07/28 12:09:59;;;;;;;2.13;2.03;;;28.80;55.70;;;;;;5053817;28;20439;-47
2023/07/28 12:12:29;;;;;;;2.67;2.20;;;28.90;55.00;;;;;;5053547;28;20715;-45
2023/07/28 12:15:04;;;;;;;2.63;2.33;;;28.90;54.90;;;;;;5052621;28;20946;-45
2023/07/28 12:17:30;;;;;;;2.17;2.07;;;28.90;54.40;;;;;;5040702;28;20506;-47
2023/07/28 12:20:10;;;;;;;3.87;2.10;;;28.90;54.30;;;;;;5052909;28;20546;-46
2023/07/28 12:22:43;;;;;;;2.37;2.17;;;28.90;53.90;;;;;;5053689;28;20288;-45
2023/07/28 12:25:09;;;;;;;2.33;2.13;;;28.90;54.20;;;;;;5052457;28;20506;-47
2023/07/28 12:27:35;;;;;;;4.17;2.00;;;28.80;56.20;;;;;;5052437;28;20835;-46
2023/07/28 12:30:01;;;;;;;2.10;2.00;;;28.80;57.30;;;;;;5052615;28;20427;-46
2023/07/28 12:32:27;;;;;;;2.57;2.33;;;28.80;57.10;;;;;;5053380;28;20570;-45
2023/07/28 12:34:53;;;;;;;2.27;2.07;;;28.70;57.00;;;;;;5052559;28;20430;-45
2023/07/28 12:37:19;;;;;;;2.47;2.27;;;28.70;56.80;;;;;;5053431;28;20656;-45
2023/07/28 12:39:45;;;;;;;2.33;2.13;;;28.60;56.80;;;;;;5052926;28;20251;-47
2023/07/28 12:42:12;;;;;;;2.30;2.17;;;28.50;56.90;;;;;;5052584;28;20803;-49